Lhunze, China
Current Conditions -  °F | °C
As of 12:50 AM on Friday 24 Oct 2014 (Local Time) from VGEG Reporting Station
Haze Haze  
Wind Chill: 79°   Ceiling: Unl
Heat Index: 82°   Visibility: 3mi
Dew Point: 73°   Wind: 3mph
Humidity: 83%   Direction: 300°WNW
Pressure: 29.85"   Gusts: NA
Location:  28.42°N, 92.47°E
Report Text: VGEG 231650Z 30003KT 5000 HZ NSC 26/23 Q1011 NOSIG
Loading
Personal Weather Stations






























Interactive Weather Map
Tropical Storm Tracking
New forecast layout! Learn more

10-Day Weather Forecast

Advertisements
Track Severe Weather on mobile